createdAt,value
2022-08-17T00:03:49.234Z,99686.53
2022-08-17T00:13:59.447Z,99696.00
2022-08-17T00:24:03.538Z,99690.06
2022-08-17T00:34:10.033Z,99679.69
2022-08-17T00:44:13.802Z,99671.28
2022-08-17T00:54:24.048Z,99682.53
2022-08-17T01:04:30.396Z,99685.97
2022-08-17T01:14:35.928Z,99675.56
2022-08-17T01:24:46.038Z,99683.47
2022-08-17T01:34:50.884Z,99685.16
2022-08-17T01:44:59.807Z,99686.00
2022-08-17T01:55:05.758Z,99696.22
2022-08-17T02:05:10.930Z,99688.53
2022-08-17T02:15:16.720Z,99675.75
2022-08-17T02:25:22.940Z,99664.63
2022-08-17T02:35:29.471Z,99670.63
2022-08-17T02:45:35.170Z,99668.13
2022-08-17T02:55:41.594Z,99660.47
2022-08-17T03:05:53.067Z,99667.31
2022-08-17T03:15:56.694Z,99681.03
2022-08-17T03:26:02.152Z,99693.03
2022-08-17T03:36:07.865Z,99693.91
2022-08-17T03:46:34.390Z,99681.94
2022-08-17T03:56:45.518Z,99676.78
2022-08-17T04:06:50.852Z,99687.06
2022-08-17T04:16:54.561Z,99675.06
2022-08-17T04:26:59.698Z,99675.94
2022-08-17T04:37:03.454Z,99682.75
2022-08-17T04:47:11.336Z,99683.59
2022-08-17T04:57:16.934Z,99698.91
2022-08-17T05:07:24.631Z,99707.41
2022-08-17T05:17:29.935Z,99709.09
2022-08-17T05:27:36.431Z,99709.00
2022-08-17T05:37:40.131Z,99707.16
2022-08-17T05:47:47.667Z,99712.75
2022-08-17T05:58:08.962Z,99718.91
2022-08-17T06:08:28.130Z,99716.38
2022-08-17T06:18:39.787Z,99712.41
2022-08-17T06:28:51.965Z,99713.22
2022-08-17T06:39:10.512Z,99713.88
2022-08-17T06:49:25.124Z,99701.34
2022-08-17T06:59:55.643Z,99713.75
2022-08-17T07:10:02.484Z,99729.56
2022-08-17T07:20:10.771Z,99739.56
2022-08-17T07:30:20.610Z,99726.47
2022-08-17T07:40:30.869Z,99717.16
2022-08-17T07:50:36.104Z,99715.75
2022-08-17T08:00:41.216Z,99742.81
2022-08-17T08:11:07.102Z,99731.91
2022-08-17T08:21:19.552Z,99752.88
2022-08-17T08:31:43.874Z,99731.78
2022-08-17T08:41:58.406Z,99732.41
2022-08-17T08:52:06.492Z,99779.03
2022-08-17T09:02:40.746Z,99781.00
2022-08-17T09:12:56.405Z,99789.53
2022-08-17T09:23:07.860Z,99810.34
2022-08-17T09:33:17.612Z,99801.75
2022-08-17T09:43:32.159Z,99777.03
2022-08-17T09:53:39.925Z,99781.84
2022-08-17T10:04:12.119Z,99780.53
2022-08-17T10:14:36.928Z,99771.31
2022-08-17T10:25:22.066Z,99780.88
2022-08-17T10:35:42.821Z,99775.44
2022-08-17T10:46:09.531Z,99780.81
2022-08-17T10:56:57.712Z,99784.50
2022-08-17T11:07:22.370Z,99800.59
2022-08-17T11:18:01.363Z,99800.75
2022-08-17T11:28:15.523Z,99808.25
2022-08-17T11:38:29.354Z,99817.38
2022-08-17T11:48:59.967Z,99827.31
2022-08-17T12:00:10.423Z,99817.84
2022-08-17T12:10:17.252Z,99807.53
2022-08-17T12:20:28.112Z,99824.69
2022-08-17T12:30:31.923Z,99818.03
2022-08-17T12:40:37.268Z,99802.72
2022-08-17T12:50:44.422Z,99779.00
2022-08-17T13:00:57.021Z,99772.56
2022-08-17T13:11:03.473Z,99767.50
2022-08-17T13:21:22.163Z,99750.22
2022-08-17T13:31:51.837Z,99737.41
2022-08-17T13:41:58.192Z,99717.22
2022-08-17T13:52:02.111Z,99718.41
2022-08-17T14:02:11.498Z,99710.53
2022-08-17T14:12:19.405Z,99696.50
2022-08-17T14:22:30.475Z,99668.94
2022-08-17T14:32:38.371Z,99689.59
2022-08-17T14:42:46.186Z,99670.31
2022-08-17T14:52:50.561Z,99659.66
2022-08-17T15:02:58.472Z,99669.81
2022-08-17T15:13:02.871Z,99657.47
2022-08-17T15:23:09.563Z,99637.59
2022-08-17T15:33:18.833Z,99648.81
2022-08-17T15:43:28.231Z,99641.09
2022-08-17T15:53:33.250Z,99634.84
2022-08-17T16:04:01.496Z,99621.66
2022-08-17T16:14:03.090Z,99621.38
2022-08-17T16:24:13.626Z,99620.34
2022-08-17T16:34:19.063Z,99614.31
2022-08-17T16:44:25.665Z,99607.75
2022-08-17T16:54:29.603Z,99608.00
2022-08-17T17:04:38.217Z,99623.56
2022-08-17T17:14:47.250Z,99610.97
2022-08-17T17:25:05.382Z,99602.19
2022-08-17T17:35:17.510Z,99594.66
2022-08-17T17:45:26.712Z,99587.94
2022-08-17T17:55:59.470Z,99591.22
2022-08-17T18:06:22.469Z,99613.16
2022-08-17T18:16:31.915Z,99607.50
2022-08-17T18:26:53.485Z,99623.91
2022-08-17T18:37:00.010Z,99627.25
2022-08-17T18:47:16.299Z,99629.50
2022-08-17T18:57:31.570Z,99647.59
2022-08-17T19:07:40.033Z,99667.13
2022-08-17T19:17:50.229Z,99677.84
2022-08-17T19:28:01.063Z,99688.19
2022-08-17T19:38:15.546Z,99693.16
2022-08-17T19:48:37.191Z,99708.72
2022-08-17T19:58:57.805Z,99707.53
2022-08-17T20:09:15.223Z,99711.31
2022-08-17T20:19:28.995Z,99712.50
2022-08-17T20:30:09.302Z,99714.00
2022-08-17T20:40:22.983Z,99718.94
2022-08-17T20:50:33.392Z,99702.47
2022-08-17T21:00:47.069Z,99687.09
2022-08-17T21:10:55.046Z,99708.19
2022-08-17T21:21:16.891Z,99728.63
2022-08-17T21:31:43.056Z,99736.97
2022-08-17T21:41:52.931Z,99734.09
2022-08-17T21:51:58.154Z,99755.91
2022-08-17T22:02:05.633Z,99761.09
2022-08-17T22:12:16.123Z,99772.19
2022-08-17T22:22:58.773Z,99779.97
2022-08-17T22:33:37.435Z,99764.66
2022-08-17T22:43:43.760Z,99787.09
2022-08-17T22:54:10.507Z,99776.91
2022-08-17T23:04:33.487Z,99802.41
2022-08-17T23:14:42.384Z,99817.97
2022-08-17T23:24:49.915Z,99818.16
2022-08-17T23:34:55.021Z,99829.44
2022-08-17T23:44:58.828Z,99826.19
2022-08-17T23:55:05.823Z,99832.38
